Aérodrome :
LOGIN :

S'inscrire | Disclaimer

   EN    FR    IT 

 










Légende :    VFR   VFR Marginal   IFR   IFR Intensif   IFR Très Intensif
Visi : 
Plafond : 
>= 8 km
>= 3000ft
5 à 8 km
1000 à 3000 ft
1500m à 5 km
500 à 1000 ft
800 à 1500m
200 à 500 ft
< 800m
< 200 ft
Symboles :   Orages  Brouillard  Fortes neiges  Fortes précipitations  Vent > 20 kt
SIGMETs :   Divers  Orages  Givrage  Turbulence  Onde Orograph.  Cendres Volcan.







- Altitude de l'aérodrome : 209 ft
- Code IATA : CLY
- Voir les cartes d'approche


LFKC - Calvi

DERNIER METAR :
  • 141030Z AUTO 17005KT 110V250 9999 FEW078 SCT130 BKN210 27/19 Q1012 TEMPO 21015G25KT TSRA FEW020 SCT030CB BKN080

METARs EXPIRÉS :
  • 141000Z AUTO 21007KT 170V240 9999 FEW035/// BKN086/// BKN110/// ///TCU 24/20 Q1012 TEMPO 21015G25KT TSRA FEW020 SCT030CB BKN080
  • 140930Z AUTO 21008KT 9999 -RA FEW050/// BKN096/// BKN110/// ///CB 25/19 Q1013 TEMPO 21015G25KT TSRA
  • 140900Z AUTO 21009KT 160V240 9999 FEW054/// OVC098/// ///CB 27/18 Q1012 TEMPO 21015G25KT TSRA
  • 140830Z AUTO 19005KT 140V230 9999 BKN100 28/19 Q1012 TEMPO 21015G25KT TSRA FEW020 SCT030CB BKN080
  • 140800Z AUTO 16010KT 9999 BKN100 26/19 Q1012 BECMG 24015G25KT SHRA FEW030CB

TAF TAF LFKC
Valide du 14 à 09h jusqu'au 15 à 09h UTC


140800Z 1409/1509 22013KT 9999 FEW050 BKN100 TX31/1413Z TN20/1504Z
TEMPO 1410/1417 21015G25KT
PROB30
TEMPO 1409/1416 7000 TSRA FEW020 SCT030CB BKN080
BECMG 1419/1421 18005KT FEW040
BECMG 1507/1509 02010KT
ATIS : +33 4 95 65 82 49
Pas de NOTAMs connus pour ce terrain.
1 SIGMET publié pour la FIR Marseille (LFMM) :
 
Orages noyés dans la masse
LFMM SIGMET 3 VALID 140930/141200 LFPW
LFMM MARSEILLE FIR/UIR EMBD TS OBS WI N4000 E00800 - N3900 E00800 - N3900 E00445 - N4015 E00530 - N4000 E00800 TOP FL400 STNR NC=



MET'MAP, la Météo Aéronautique d'un coup d'oeil ! - Copyright ORBIFLY Décembre 2007 - Disclaimer

ORBIFLY MET'MAP TEAM :

Programmation & Développement : Alexandra Zaïnal
Conception & Développement : Baudouin d'Aumeries
Co-Programmation & Développement : Marc-Olivier Méhu
Soutien technique & logistique : Manuel Goepfert

Contact : metmap@orbifly.com




SOURCES & CREDITS :

   NOAA